createdAt,value
2022-12-14T00:02:03.095Z,23.30
2022-12-14T00:07:04.888Z,23.27
2022-12-14T00:12:08.788Z,24.25
2022-12-14T00:17:10.504Z,23.88
2022-12-14T00:22:12.205Z,24.20
2022-12-14T00:27:13.866Z,23.95
2022-12-14T00:32:15.514Z,24.35
2022-12-14T00:37:17.155Z,26.35
2022-12-14T00:42:18.808Z,26.40
2022-12-14T00:47:20.433Z,25.73
2022-12-14T00:52:22.107Z,27.40
2022-12-14T00:57:23.834Z,26.55
2022-12-14T01:02:25.662Z,26.45
2022-12-14T01:07:27.478Z,26.33
2022-12-14T01:12:29.264Z,27.17
2022-12-14T01:17:30.904Z,24.85
2022-12-14T01:22:32.609Z,25.98
2022-12-14T01:27:34.359Z,25.25
2022-12-14T01:32:36.054Z,24.60
2022-12-14T01:37:37.731Z,23.45
2022-12-14T01:42:39.432Z,23.55
2022-12-14T01:47:44.339Z,22.90
2022-12-14T01:52:49.531Z,21.40
2022-12-14T01:57:57.144Z,22.23
2022-12-14T02:03:07.753Z,21.60
2022-12-14T02:08:09.847Z,20.63
2022-12-14T02:13:22.859Z,19.77
2022-12-14T02:18:27.586Z,19.83
2022-12-14T02:23:50.528Z,20.52
2022-12-14T02:29:10.771Z,19.02
2022-12-14T02:34:45.555Z,18.92
2022-12-14T02:40:07.374Z,19.08
2022-12-14T02:45:32.180Z,19.25
2022-12-14T02:50:37.885Z,19.10
2022-12-14T02:55:46.073Z,18.85
2022-12-14T03:00:49.463Z,18.42
2022-12-14T03:05:59.626Z,18.30
2022-12-14T03:11:06.623Z,19.13
2022-12-14T03:16:16.742Z,19.38
2022-12-14T03:21:24.589Z,18.65
2022-12-14T03:26:45.621Z,19.08
2022-12-14T03:31:55.067Z,19.85
2022-12-14T03:37:11.814Z,19.38
2022-12-14T03:42:23.574Z,18.67
2022-12-14T03:47:40.040Z,18.98
2022-12-14T03:52:56.923Z,19.37
2022-12-14T03:58:39.318Z,18.90
2022-12-14T04:03:51.428Z,19.90
2022-12-14T04:09:12.223Z,18.52
2022-12-14T04:14:38.232Z,18.67
2022-12-14T04:19:50.878Z,17.63
2022-12-14T04:25:34.583Z,19.25
2022-12-14T04:30:39.535Z,19.30
2022-12-14T04:35:42.516Z,17.33
2022-12-14T04:40:58.899Z,17.83
2022-12-14T04:46:14.926Z,18.63
2022-12-14T04:51:33.698Z,18.77
2022-12-14T04:56:53.161Z,18.35
2022-12-14T05:01:54.856Z,19.33
2022-12-14T05:07:17.592Z,18.73
2022-12-14T05:12:34.158Z,18.20
2022-12-14T05:17:40.560Z,17.95
2022-12-14T05:22:43.963Z,18.10
2022-12-14T05:27:46.630Z,19.58
2022-12-14T05:32:48.539Z,18.50
2022-12-14T05:37:50.226Z,18.42
2022-12-14T05:42:55.750Z,21.73
2022-12-14T05:47:57.720Z,18.27
2022-12-14T05:52:59.346Z,19.65
2022-12-14T05:58:01.479Z,19.60
2022-12-14T06:03:03.177Z,19.73
2022-12-14T06:08:05.059Z,17.63
2022-12-14T06:13:06.767Z,17.42
2022-12-14T06:18:08.471Z,19.15
2022-12-14T06:23:10.288Z,19.27
2022-12-14T06:28:11.975Z,18.33
2022-12-14T06:33:13.956Z,18.00
2022-12-14T06:38:16.491Z,18.10
2022-12-14T06:43:18.274Z,18.20
2022-12-14T06:48:20.119Z,17.05
2022-12-14T06:53:21.873Z,16.75
2022-12-14T06:58:25.756Z,15.55
2022-12-14T07:03:32.108Z,16.42
2022-12-14T07:08:36.281Z,17.42
2022-12-14T07:13:39.086Z,16.55
2022-12-14T07:18:40.735Z,18.13
2022-12-14T07:23:43.861Z,17.20
2022-12-14T07:28:45.762Z,16.35
2022-12-14T07:33:47.870Z,17.02
2022-12-14T07:38:50.720Z,15.80
2022-12-14T07:43:54.727Z,16.30
2022-12-14T07:48:57.794Z,15.63
2022-12-14T07:54:01.774Z,15.60
2022-12-14T07:59:06.675Z,16.08
2022-12-14T08:04:14.970Z,15.25
2022-12-14T08:09:17.515Z,15.80
2022-12-14T08:14:19.365Z,16.30
2022-12-14T08:19:21.193Z,16.05
2022-12-14T08:24:22.913Z,16.15
2022-12-14T08:29:24.606Z,16.48
2022-12-14T08:34:26.183Z,15.90
2022-12-14T08:39:27.842Z,17.50
2022-12-14T08:44:29.471Z,16.75
2022-12-14T08:49:32.582Z,16.38
2022-12-14T08:54:35.477Z,16.98
2022-12-14T09:00:00.697Z,16.00
2022-12-14T09:04:58.808Z,16.45
2022-12-14T09:10:00.441Z,16.10
2022-12-14T09:15:02.283Z,17.63
2022-12-14T09:20:04.987Z,16.50
2022-12-14T09:25:06.957Z,16.98
2022-12-14T09:30:08.969Z,18.85
2022-12-14T09:35:10.607Z,18.23
2022-12-14T09:40:13.645Z,18.00
2022-12-14T09:45:24.246Z,17.85
2022-12-14T09:50:27.155Z,18.08
2022-12-14T09:55:43.417Z,19.17
2022-12-14T10:00:53.556Z,18.15
2022-12-14T10:06:11.553Z,19.35
2022-12-14T10:11:31.349Z,17.40
2022-12-14T10:16:56.708Z,19.65
2022-12-14T10:22:06.875Z,19.13
2022-12-14T10:27:11.514Z,20.55
2022-12-14T10:32:29.663Z,19.63
2022-12-14T10:37:42.637Z,19.50
2022-12-14T10:42:44.239Z,18.67
2022-12-14T10:47:56.999Z,18.88
2022-12-14T10:53:00.017Z,18.60
2022-12-14T10:58:01.783Z,17.63
2022-12-14T11:03:06.884Z,17.88
2022-12-14T11:08:10.454Z,19.17
2022-12-14T11:13:20.980Z,18.85
2022-12-14T11:18:31.176Z,16.30
2022-12-14T11:23:47.362Z,18.52
2022-12-14T11:28:52.290Z,18.92
2022-12-14T11:33:56.882Z,18.15
2022-12-14T11:39:01.203Z,18.05
2022-12-14T11:44:15.484Z,19.15
2022-12-14T11:49:35.132Z,19.77
2022-12-14T11:54:39.932Z,18.27
2022-12-14T11:59:51.024Z,19.63
2022-12-14T12:05:04.832Z,19.42
2022-12-14T12:10:09.517Z,19.27
2022-12-14T12:15:17.468Z,21.17
2022-12-14T12:20:53.698Z,20.58
2022-12-14T12:25:58.613Z,20.60
2022-12-14T12:31:10.654Z,20.33
2022-12-14T12:36:20.449Z,21.38
2022-12-14T12:41:44.627Z,21.33
2022-12-14T12:47:23.426Z,21.55
2022-12-14T12:52:28.082Z,21.48
2022-12-14T12:57:42.092Z,20.20
2022-12-14T13:02:50.374Z,22.55
2022-12-14T13:07:57.424Z,22.58
2022-12-14T13:13:17.028Z,22.07
2022-12-14T13:18:56.051Z,22.83
2022-12-14T13:23:47.333Z,22.08
2022-12-14T13:29:09.041Z,23.92
2022-12-14T13:34:29.140Z,23.15
2022-12-14T13:39:56.091Z,24.55
2022-12-14T13:45:03.127Z,21.15
2022-12-14T13:50:38.505Z,24.02
2022-12-14T13:55:34.278Z,24.98
2022-12-14T14:00:45.253Z,24.48
2022-12-14T14:05:46.939Z,25.40
2022-12-14T14:10:54.114Z,24.30
2022-12-14T14:16:27.574Z,24.92
2022-12-14T14:21:58.793Z,25.92
2022-12-14T14:27:17.244Z,27.08
2022-12-14T14:32:33.624Z,38.53
2022-12-14T14:37:38.721Z,31.23
2022-12-14T14:42:49.744Z,26.48
2022-12-14T14:47:56.977Z,26.48
2022-12-14T14:53:18.269Z,27.13
2022-12-14T14:58:27.523Z,26.33
2022-12-14T15:03:55.665Z,26.50
2022-12-14T15:09:03.710Z,26.48
2022-12-14T15:14:16.074Z,26.95
2022-12-14T15:19:27.874Z,25.42
2022-12-14T15:24:37.443Z,25.70
2022-12-14T15:29:39.232Z,26.80
2022-12-14T15:34:52.043Z,27.25
2022-12-14T15:40:11.992Z,27.63
2022-12-14T15:45:18.491Z,28.33
2022-12-14T15:50:32.719Z,21.90
2022-12-14T15:55:41.935Z,27.65
2022-12-14T16:00:48.144Z,30.10
2022-12-14T16:05:50.379Z,29.25
2022-12-14T16:10:55.835Z,30.08
2022-12-14T16:16:00.507Z,30.33
2022-12-14T16:21:04.067Z,29.88
2022-12-14T16:26:14.783Z,30.90
2022-12-14T16:31:21.986Z,30.42
2022-12-14T16:36:25.578Z,33.80
2022-12-14T16:41:41.025Z,32.47
2022-12-14T16:47:03.425Z,32.25
2022-12-14T16:52:19.888Z,34.08
2022-12-14T16:57:24.156Z,33.33
2022-12-14T17:02:30.865Z,34.10
2022-12-14T17:07:33.492Z,33.30
2022-12-14T17:12:35.164Z,37.22
2022-12-14T17:17:36.922Z,35.20
2022-12-14T17:22:38.651Z,36.88
2022-12-14T17:27:41.137Z,34.67
2022-12-14T17:32:43.516Z,34.83
2022-12-14T17:37:45.242Z,35.20
2022-12-14T17:42:52.986Z,35.10
2022-12-14T17:47:55.256Z,35.10
2022-12-14T17:52:57.043Z,36.88
2022-12-14T17:58:00.103Z,35.08
2022-12-14T18:03:03.171Z,35.58
2022-12-14T18:08:05.229Z,34.28
2022-12-14T18:13:07.218Z,34.80
2022-12-14T18:18:09.067Z,35.72
2022-12-14T18:23:17.943Z,297.00
2022-12-14T18:28:19.942Z,222.60
2022-12-14T18:33:24.164Z,116.50
2022-12-14T18:38:26.553Z,150.60
2022-12-14T18:43:29.019Z,57.42
2022-12-14T18:48:31.038Z,44.80
2022-12-14T18:53:33.873Z,102.10
2022-12-14T18:58:36.245Z,85.07
2022-12-14T19:03:38.024Z,77.82
2022-12-14T19:08:41.347Z,60.28
2022-12-14T19:13:45.422Z,82.80
2022-12-14T19:18:47.040Z,77.30
2022-12-14T19:23:48.645Z,80.78
2022-12-14T19:28:50.343Z,56.08
2022-12-14T19:33:51.980Z,55.05
2022-12-14T19:38:53.655Z,43.10
2022-12-14T19:43:58.735Z,42.45
2022-12-14T19:49:00.962Z,36.70
2022-12-14T19:54:03.827Z,34.97
2022-12-14T19:59:05.501Z,36.58
2022-12-14T20:04:07.240Z,37.00
2022-12-14T20:09:09.979Z,35.08
2022-12-14T20:14:12.923Z,36.55
2022-12-14T20:19:14.690Z,40.95
2022-12-14T20:24:17.437Z,37.95
2022-12-14T20:29:19.161Z,37.63
2022-12-14T20:34:21.887Z,39.08
2022-12-14T20:39:23.907Z,38.72
2022-12-14T20:44:26.068Z,37.70
2022-12-14T20:49:30.110Z,37.92
2022-12-14T20:54:32.133Z,39.05
2022-12-14T20:59:34.130Z,39.13
2022-12-14T21:04:36.008Z,37.13
2022-12-14T21:09:37.962Z,37.53
2022-12-14T21:14:42.567Z,38.38
2022-12-14T21:19:44.636Z,38.70
2022-12-14T21:25:04.224Z,38.60
2022-12-14T21:30:10.011Z,36.95
2022-12-14T21:35:13.229Z,36.95
2022-12-14T21:40:36.894Z,34.30
2022-12-14T21:45:38.615Z,34.30
2022-12-14T21:50:42.410Z,35.65
2022-12-14T21:55:51.245Z,34.38
2022-12-14T22:00:52.954Z,34.65
2022-12-14T22:05:54.594Z,34.40
2022-12-14T22:11:02.529Z,35.45
2022-12-14T22:16:06.103Z,35.20
2022-12-14T22:21:07.910Z,35.72
2022-12-14T22:26:09.776Z,35.40
2022-12-14T22:31:11.653Z,33.75
2022-12-14T22:36:15.037Z,35.30
2022-12-14T22:41:18.360Z,36.05
2022-12-14T22:46:20.509Z,35.17
2022-12-14T22:51:23.176Z,33.38
2022-12-14T22:56:34.478Z,36.08
2022-12-14T23:01:37.541Z,34.42
2022-12-14T23:06:40.856Z,35.08
2022-12-14T23:12:01.020Z,33.10
2022-12-14T23:17:21.627Z,33.58
2022-12-14T23:22:41.994Z,32.60
2022-12-14T23:28:02.478Z,33.63
2022-12-14T23:33:22.579Z,33.22
2022-12-14T23:38:42.550Z,30.42
2022-12-14T23:44:03.315Z,30.20
2022-12-14T23:49:23.752Z,30.88
2022-12-14T23:54:44.202Z,30.00
